createdAt,value
2018-08-22T00:00:16.084Z,99.90
2018-08-22T00:03:26.827Z,99.90
2018-08-22T00:06:37.554Z,99.90
2018-08-22T00:09:47.469Z,99.90
2018-08-22T00:12:57.423Z,99.90
2018-08-22T00:16:07.931Z,99.90
2018-08-22T00:19:18.060Z,99.90
2018-08-22T00:22:28.963Z,99.90
2018-08-22T00:25:39.118Z,99.90
2018-08-22T00:28:49.473Z,99.90
2018-08-22T00:31:59.677Z,99.90
2018-08-22T00:35:09.776Z,99.90
2018-08-22T00:38:20.751Z,99.90
2018-08-22T00:41:31.500Z,99.90
2018-08-22T00:44:41.433Z,99.90
2018-08-22T00:47:51.746Z,99.90
2018-08-22T00:51:02.100Z,99.90
2018-08-22T00:54:12.290Z,99.90
2018-08-22T00:57:23.015Z,99.90
2018-08-22T01:00:33.577Z,99.90
2018-08-22T01:03:43.372Z,99.90
2018-08-22T01:06:53.448Z,99.90
2018-08-22T01:10:03.740Z,99.90
2018-08-22T01:13:14.018Z,99.90
2018-08-22T01:16:23.894Z,99.90
2018-08-22T01:19:34.415Z,99.90
2018-08-22T01:22:44.807Z,99.90
2018-08-22T01:25:55.181Z,99.90
2018-08-22T01:29:05.293Z,99.90
2018-08-22T01:32:15.652Z,99.90
2018-08-22T01:35:25.502Z,99.90
2018-08-22T01:38:35.695Z,99.90
2018-08-22T01:41:46.031Z,99.90
2018-08-22T01:44:55.912Z,99.90
2018-08-22T01:48:05.981Z,99.90
2018-08-22T01:51:16.270Z,99.90
2018-08-22T01:54:26.368Z,99.90
2018-08-22T01:57:36.992Z,99.90
2018-08-22T02:00:47.535Z,99.90
2018-08-22T02:03:57.706Z,99.90
2018-08-22T02:07:07.781Z,99.90
2018-08-22T02:10:17.855Z,99.90
2018-08-22T02:13:28.712Z,99.90
2018-08-22T02:16:39.759Z,99.90
2018-08-22T02:19:50.147Z,99.90
2018-08-22T02:23:00.846Z,99.90
2018-08-22T02:26:11.512Z,99.90
2018-08-22T02:29:22.138Z,99.90
2018-08-22T02:32:32.373Z,99.90
2018-08-22T02:35:42.475Z,99.90
2018-08-22T02:38:53.032Z,99.90
2018-08-22T02:42:03.529Z,99.90
2018-08-22T02:45:13.588Z,99.90
2018-08-22T02:48:23.796Z,99.90
2018-08-22T02:51:33.879Z,99.90
2018-08-22T02:54:44.267Z,99.90
2018-08-22T02:57:55.438Z,99.90
2018-08-22T03:01:06.279Z,99.90
2018-08-22T03:04:16.352Z,99.90
2018-08-22T03:07:26.441Z,99.90
2018-08-22T03:10:37.002Z,99.90
2018-08-22T03:13:47.387Z,99.90
2018-08-22T03:17:00.373Z,99.90
2018-08-22T03:20:10.945Z,99.90
2018-08-22T03:23:21.300Z,99.90
2018-08-22T03:26:31.394Z,99.90
2018-08-22T03:29:41.373Z,99.90
2018-08-22T03:32:52.138Z,99.90
2018-08-22T03:36:02.014Z,99.90
2018-08-22T03:39:12.231Z,99.90
2018-08-22T03:42:22.799Z,99.90
2018-08-22T03:45:32.978Z,99.90
2018-08-22T03:48:43.719Z,99.90
2018-08-22T03:51:53.721Z,99.90
2018-08-22T03:55:03.953Z,99.90
2018-08-22T03:58:14.932Z,99.90
2018-08-22T04:01:25.725Z,99.90
2018-08-22T04:04:36.560Z,99.90
2018-08-22T04:07:46.850Z,99.90
2018-08-22T04:10:57.669Z,99.90
2018-08-22T04:14:08.332Z,99.90
2018-08-22T04:17:18.317Z,99.90
2018-08-22T04:20:28.399Z,99.90
2018-08-22T04:23:38.364Z,99.90
2018-08-22T04:26:48.589Z,99.90
2018-08-22T04:29:58.527Z,99.90
2018-08-22T04:33:08.741Z,99.90
2018-08-22T04:36:19.419Z,99.90
2018-08-22T04:39:29.815Z,99.90
2018-08-22T04:42:40.439Z,99.90
2018-08-22T04:45:50.456Z,99.90
2018-08-22T04:49:00.459Z,99.90
2018-08-22T04:52:10.511Z,99.90
2018-08-22T04:55:20.396Z,99.90
2018-08-22T04:58:31.254Z,99.90
2018-08-22T05:01:41.705Z,99.90
2018-08-22T05:04:52.480Z,99.90
2018-08-22T05:08:02.593Z,99.90
2018-08-22T05:11:12.734Z,99.90
2018-08-22T05:14:22.920Z,99.90
2018-08-22T05:17:32.986Z,99.90
2018-08-22T05:20:44.039Z,99.90
2018-08-22T05:23:54.327Z,99.90
2018-08-22T05:27:04.886Z,99.90
2018-08-22T05:30:15.649Z,99.90
2018-08-22T05:33:26.044Z,99.90
2018-08-22T05:36:35.917Z,99.90
2018-08-22T05:39:46.240Z,99.90
2018-08-22T05:42:56.393Z,99.90
2018-08-22T05:46:07.114Z,99.90
2018-08-22T05:49:18.019Z,99.90
2018-08-22T05:52:28.081Z,99.90
2018-08-22T05:55:38.125Z,99.90
2018-08-22T05:58:48.497Z,99.90
2018-08-22T06:01:58.416Z,99.90
2018-08-22T06:05:08.678Z,99.90
2018-08-22T06:08:18.761Z,99.90
2018-08-22T06:11:29.641Z,99.90
2018-08-22T06:14:39.593Z,99.90
2018-08-22T06:17:50.980Z,99.90
2018-08-22T06:21:01.025Z,99.90
2018-08-22T06:24:11.082Z,99.90
2018-08-22T06:27:21.137Z,99.90
2018-08-22T06:30:31.245Z,99.90
2018-08-22T06:33:41.101Z,99.90
2018-08-22T06:36:50.981Z,99.90
2018-08-22T06:40:01.104Z,99.90
2018-08-22T06:43:11.599Z,99.90
2018-08-22T06:46:21.471Z,99.90
2018-08-22T06:49:31.548Z,99.90
2018-08-22T06:52:41.622Z,99.90
2018-08-22T06:55:52.214Z,99.90
2018-08-22T06:59:03.036Z,99.90
2018-08-22T07:02:13.317Z,99.90
2018-08-22T07:05:23.324Z,99.90
2018-08-22T07:08:33.533Z,99.90
2018-08-22T07:11:43.438Z,99.90
2018-08-22T07:14:53.390Z,99.90
2018-08-22T07:18:04.308Z,99.90
2018-08-22T07:21:15.046Z,99.90
2018-08-22T07:24:25.918Z,99.90
2018-08-22T07:27:35.863Z,99.90
2018-08-22T07:30:46.023Z,99.90
2018-08-22T07:33:56.563Z,99.90
2018-08-22T07:37:06.664Z,99.90
2018-08-22T07:40:16.800Z,99.90
2018-08-22T07:43:27.593Z,99.90
2018-08-22T07:46:37.692Z,99.90
2018-08-22T07:49:53.761Z,99.90
2018-08-22T07:53:05.534Z,99.90
2018-08-22T07:56:16.218Z,99.90
2018-08-22T07:59:26.536Z,99.90
2018-08-22T08:02:37.137Z,99.90
2018-08-22T08:05:48.219Z,99.90
2018-08-22T08:08:58.750Z,99.90
2018-08-22T08:12:09.111Z,99.90
2018-08-22T08:15:19.403Z,99.90
2018-08-22T08:18:30.024Z,99.90
2018-08-22T08:21:40.757Z,99.90
2018-08-22T08:24:50.333Z,99.90
2018-08-22T08:28:00.298Z,99.90
2018-08-22T08:31:10.304Z,99.90
2018-08-22T08:34:20.344Z,99.90
2018-08-22T08:37:30.352Z,99.90
2018-08-22T08:40:40.707Z,99.90
2018-08-22T08:43:50.688Z,99.90
2018-08-22T08:47:00.714Z,99.90
2018-08-22T08:50:10.898Z,99.90
2018-08-22T08:53:21.787Z,99.90
2018-08-22T08:56:32.268Z,99.90
2018-08-22T08:59:43.282Z,99.90
2018-08-22T09:02:53.804Z,99.90
2018-08-22T09:06:03.946Z,99.90
2018-08-22T09:09:13.885Z,99.90
2018-08-22T09:12:24.200Z,99.90
2018-08-22T09:15:34.237Z,99.90
2018-08-22T09:18:45.057Z,99.90
2018-08-22T09:21:55.623Z,99.90
2018-08-22T09:25:05.764Z,99.90
2018-08-22T09:28:16.139Z,99.30
2018-08-22T09:31:26.053Z,99.00
2018-08-22T09:34:35.926Z,98.80
2018-08-22T09:37:45.808Z,99.00
2018-08-22T09:40:55.637Z,97.80
2018-08-22T09:44:06.208Z,97.40
2018-08-22T09:47:16.417Z,97.40
2018-08-22T09:50:26.425Z,96.10
2018-08-22T09:53:36.906Z,96.00
2018-08-22T09:56:46.894Z,96.30
2018-08-22T09:59:57.119Z,96.60
2018-08-22T10:03:07.517Z,95.40
2018-08-22T10:06:38.182Z,95.00
2018-08-22T10:09:47.766Z,94.20
2018-08-22T10:12:58.415Z,94.20
2018-08-22T10:16:08.813Z,93.50
2018-08-22T10:19:19.034Z,93.70
2018-08-22T10:22:29.016Z,93.00
2018-08-22T10:25:38.857Z,92.80
2018-08-22T10:28:49.253Z,92.40
2018-08-22T10:31:59.009Z,92.20
2018-08-22T10:35:09.117Z,91.60
2018-08-22T10:38:19.719Z,92.30
2018-08-22T10:41:30.194Z,91.50
2018-08-22T10:44:40.015Z,91.70
2018-08-22T10:47:50.168Z,91.20
2018-08-22T10:51:00.423Z,90.90
2018-08-22T10:54:10.282Z,90.30
2018-08-22T10:57:20.792Z,89.40
2018-08-22T11:00:31.391Z,88.30
2018-08-22T11:03:41.094Z,86.70
2018-08-22T11:06:50.952Z,85.00
2018-08-22T11:10:00.891Z,84.90
2018-08-22T11:13:10.953Z,79.40
2018-08-22T11:16:20.802Z,78.70
2018-08-22T11:19:30.993Z,75.90
2018-08-22T11:22:52.599Z,76.50
2018-08-22T11:26:14.689Z,73.90
2018-08-22T11:29:35.780Z,73.30
2018-08-22T11:32:56.863Z,68.60
2018-08-22T11:36:06.425Z,68.50
2018-08-22T11:39:16.162Z,67.90
2018-08-22T11:42:26.111Z,66.30
2018-08-22T11:45:36.052Z,65.50
2018-08-22T11:48:46.142Z,67.60
2018-08-22T11:51:56.914Z,68.10
2018-08-22T11:55:07.751Z,68.40
2018-08-22T11:58:17.495Z,66.90
2018-08-22T12:01:27.516Z,65.50
2018-08-22T12:04:38.334Z,65.90
2018-08-22T12:07:48.014Z,64.70
2018-08-22T12:10:57.976Z,65.30
2018-08-22T12:14:08.426Z,65.00
2018-08-22T12:17:18.423Z,64.20
2018-08-22T12:20:28.767Z,63.60
2018-08-22T12:23:39.128Z,64.60
2018-08-22T12:26:49.167Z,64.10
2018-08-22T12:29:59.181Z,64.40
2018-08-22T12:33:09.743Z,63.80
2018-08-22T12:36:20.009Z,64.60
2018-08-22T12:39:29.905Z,63.40
2018-08-22T12:42:40.524Z,62.50
2018-08-22T12:45:50.573Z,63.60
2018-08-22T12:49:00.623Z,61.60
2018-08-22T12:52:10.368Z,61.40
2018-08-22T12:55:20.370Z,61.50
2018-08-22T12:58:34.201Z,63.00
2018-08-22T13:01:44.761Z,60.50
2018-08-22T13:04:56.273Z,61.50
2018-08-22T13:08:06.860Z,59.80
2018-08-22T13:11:16.814Z,60.00
2018-08-22T13:14:26.542Z,59.50
2018-08-22T13:17:36.710Z,60.80
2018-08-22T13:20:46.640Z,59.10
2018-08-22T13:23:56.930Z,59.40
2018-08-22T13:27:06.783Z,60.10
2018-08-22T13:30:16.845Z,59.40
2018-08-22T13:33:27.163Z,59.60
2018-08-22T13:36:37.130Z,59.40
2018-08-22T13:39:47.085Z,58.40
2018-08-22T13:42:57.112Z,58.60
2018-08-22T13:46:07.230Z,58.40
2018-08-22T13:49:17.208Z,58.20
2018-08-22T13:55:43.275Z,57.90
2018-08-22T13:58:53.756Z,57.90
2018-08-22T14:02:04.482Z,57.10
2018-08-22T14:05:14.517Z,57.90
2018-08-22T14:08:24.930Z,57.20
2018-08-22T14:11:34.651Z,57.90
2018-08-22T14:14:44.445Z,56.80
2018-08-22T14:17:54.223Z,57.50
2018-08-22T14:21:04.410Z,56.00
2018-08-22T14:24:14.352Z,56.60
2018-08-22T14:27:24.148Z,58.00
2018-08-22T14:30:34.087Z,57.30
2018-08-22T14:33:43.896Z,57.00
2018-08-22T14:36:53.914Z,55.60
2018-08-22T14:40:03.803Z,56.80
2018-08-22T14:43:13.675Z,57.90
2018-08-22T14:46:23.717Z,57.70
2018-08-22T14:49:33.692Z,56.40
2018-08-22T14:52:43.830Z,56.80
2018-08-22T14:55:53.638Z,55.90
2018-08-22T14:59:04.075Z,56.90
2018-08-22T15:02:14.275Z,56.60
2018-08-22T15:05:24.089Z,56.80
2018-08-22T15:08:34.395Z,56.40
2018-08-22T15:11:44.547Z,56.60
2018-08-22T15:14:54.484Z,57.20
2018-08-22T15:18:04.879Z,55.90
2018-08-22T15:21:14.455Z,55.40
2018-08-22T15:24:24.504Z,55.30
2018-08-22T15:27:34.395Z,55.10
2018-08-22T15:30:44.544Z,56.10
2018-08-22T15:33:55.038Z,56.30
2018-08-22T15:37:05.114Z,55.60
2018-08-22T15:40:16.747Z,55.30
2018-08-22T15:43:27.218Z,55.70
2018-08-22T15:46:37.240Z,56.00
2018-08-22T15:49:47.329Z,55.30
2018-08-22T15:52:57.724Z,55.60
2018-08-22T15:56:07.921Z,56.50
2018-08-22T15:59:18.639Z,56.10
2018-08-22T16:02:28.505Z,56.00
2018-08-22T16:05:39.026Z,55.80
2018-08-22T16:08:49.635Z,56.10
2018-08-22T16:11:59.878Z,56.40
2018-08-22T16:15:09.727Z,56.80
2018-08-22T16:18:25.964Z,56.30
2018-08-22T16:21:37.797Z,56.80
2018-08-22T16:24:48.410Z,56.70
2018-08-22T16:27:58.405Z,56.70
2018-08-22T16:31:08.333Z,56.80
2018-08-22T16:34:18.636Z,56.50
2018-08-22T16:37:28.375Z,56.80
2018-08-22T16:40:40.245Z,57.10
2018-08-22T16:43:50.632Z,57.20
2018-08-22T16:47:00.761Z,56.90
2018-08-22T16:50:10.729Z,56.90
2018-08-22T16:53:21.296Z,57.40
2018-08-22T16:56:33.030Z,57.50
2018-08-22T16:59:43.438Z,57.80
2018-08-22T17:02:53.699Z,58.60
2018-08-22T17:06:08.921Z,58.00
2018-08-22T17:09:19.319Z,58.00
2018-08-22T17:12:30.962Z,57.70
2018-08-22T17:15:41.213Z,58.20
2018-08-22T17:18:51.319Z,58.00
2018-08-22T17:22:01.158Z,57.90
2018-08-22T17:25:14.193Z,57.80
2018-08-22T17:28:29.521Z,58.30
2018-08-22T17:31:39.616Z,58.30
2018-08-22T17:34:50.204Z,58.30
2018-08-22T17:37:59.764Z,58.50
2018-08-22T17:41:09.874Z,58.40
2018-08-22T17:44:19.920Z,59.10
2018-08-22T17:47:30.144Z,59.30
2018-08-22T17:50:40.145Z,60.80
2018-08-22T17:53:49.747Z,60.90
2018-08-22T17:57:20.172Z,61.00
2018-08-22T18:00:33.655Z,60.60
2018-08-22T18:03:44.131Z,61.80
2018-08-22T18:06:54.237Z,62.10
2018-08-22T18:10:04.105Z,62.20
2018-08-22T18:13:16.253Z,63.30
2018-08-22T18:16:26.996Z,62.60
2018-08-22T18:19:38.607Z,63.00
2018-08-22T18:22:48.665Z,63.50
2018-08-22T18:26:01.023Z,64.20
2018-08-22T18:29:11.534Z,63.70
2018-08-22T18:32:21.904Z,64.50
2018-08-22T18:35:32.299Z,64.70
2018-08-22T18:38:48.095Z,65.70
2018-08-22T18:41:58.244Z,66.00
2018-08-22T18:45:08.280Z,65.60
2018-08-22T18:48:18.200Z,65.10
2018-08-22T18:51:28.684Z,65.90
2018-08-22T18:54:38.666Z,65.90
2018-08-22T18:57:48.611Z,66.50
2018-08-22T19:00:58.693Z,66.60
2018-08-22T19:04:08.857Z,66.10
2018-08-22T19:07:18.895Z,66.70
2018-08-22T19:10:30.849Z,66.70
2018-08-22T19:13:40.623Z,66.40
2018-08-22T19:16:50.760Z,67.50
2018-08-22T19:20:00.833Z,68.30
2018-08-22T19:23:10.620Z,69.70
2018-08-22T19:26:20.519Z,69.50
2018-08-22T19:29:30.093Z,70.00
2018-08-22T19:32:40.965Z,70.90
2018-08-22T19:35:50.755Z,70.90
2018-08-22T19:39:00.597Z,71.60
2018-08-22T19:42:10.601Z,71.60
2018-08-22T19:45:20.545Z,72.80
2018-08-22T19:48:31.180Z,73.30
2018-08-22T19:51:41.053Z,73.50
2018-08-22T19:54:51.015Z,74.10
2018-08-22T19:58:01.275Z,74.70
2018-08-22T20:01:12.056Z,74.60
2018-08-22T20:04:22.953Z,74.90
2018-08-22T20:07:33.145Z,74.70
2018-08-22T20:10:43.017Z,75.20
2018-08-22T20:13:58.446Z,76.10
2018-08-22T20:17:08.597Z,75.90
2018-08-22T20:20:20.185Z,75.20
2018-08-22T20:23:30.851Z,76.30
2018-08-22T20:26:48.618Z,76.10
2018-08-22T20:30:04.077Z,75.90
2018-08-22T20:33:13.736Z,75.60
2018-08-22T20:36:23.974Z,75.50
2018-08-22T20:39:34.762Z,76.40
2018-08-22T20:42:44.852Z,76.20
2018-08-22T20:45:55.493Z,77.60
2018-08-22T20:49:05.947Z,77.00
2018-08-22T20:52:17.054Z,78.20
2018-08-22T20:55:28.088Z,78.20
2018-08-22T20:58:39.808Z,78.50
2018-08-22T21:01:54.821Z,79.10
2018-08-22T21:05:05.484Z,79.30
2018-08-22T21:08:16.234Z,79.20
2018-08-22T21:11:26.391Z,80.80
2018-08-22T21:14:36.706Z,80.40
2018-08-22T21:17:47.482Z,81.20
2018-08-22T21:20:57.820Z,82.20
2018-08-22T21:24:07.708Z,83.20
2018-08-22T21:27:18.626Z,84.10
2018-08-22T21:30:29.351Z,84.50
2018-08-22T21:33:40.207Z,84.60
2018-08-22T21:36:50.375Z,85.00
2018-08-22T21:40:00.879Z,85.10
2018-08-22T21:43:12.816Z,86.10
2018-08-22T21:46:23.455Z,87.20
2018-08-22T21:49:33.278Z,88.10
2018-08-22T21:52:55.087Z,88.50
2018-08-22T21:57:07.792Z,89.40
2018-08-22T22:00:17.699Z,90.30
2018-08-22T22:03:32.266Z,90.80
2018-08-22T22:06:42.714Z,91.10
2018-08-22T22:09:57.582Z,91.60
2018-08-22T22:13:08.632Z,92.10
2018-08-22T22:16:23.489Z,92.50
2018-08-22T22:19:35.861Z,93.00
2018-08-22T22:22:45.770Z,93.20
2018-08-22T22:25:57.337Z,93.50
2018-08-22T22:29:07.937Z,94.10
2018-08-22T22:32:18.246Z,94.10
2018-08-22T22:35:33.608Z,94.30
2018-08-22T22:38:44.262Z,94.30
2018-08-22T22:41:54.775Z,94.50
2018-08-22T22:45:05.899Z,94.80
2018-08-22T22:48:36.877Z,95.20
2018-08-22T22:51:47.306Z,95.10
2018-08-22T22:54:59.147Z,95.40
2018-08-22T22:58:09.201Z,95.60
2018-08-22T23:01:19.029Z,95.90
2018-08-22T23:04:38.886Z,96.10
2018-08-22T23:07:49.420Z,96.10
2018-08-22T23:10:59.268Z,96.30
2018-08-22T23:14:09.279Z,96.80
2018-08-22T23:17:19.360Z,96.90
2018-08-22T23:20:32.350Z,97.30
2018-08-22T23:23:42.213Z,97.50
2018-08-22T23:26:52.145Z,97.80
2018-08-22T23:30:02.066Z,98.20
2018-08-22T23:33:12.863Z,98.30
2018-08-22T23:36:22.746Z,98.80
2018-08-22T23:39:32.773Z,98.60
2018-08-22T23:42:42.697Z,98.80
2018-08-22T23:45:56.127Z,98.70
2018-08-22T23:49:06.747Z,99.20
2018-08-22T23:52:16.934Z,99.20
2018-08-22T23:55:27.526Z,99.10
2018-08-22T23:58:37.532Z,98.90
